createdAt,value
2018-01-21T00:00:37.540Z,997.83
2018-01-21T00:01:37.538Z,997.84
2018-01-21T00:02:37.536Z,997.83
2018-01-21T00:03:37.535Z,997.84
2018-01-21T00:04:37.541Z,997.86
2018-01-21T00:05:37.545Z,997.85
2018-01-21T00:06:37.542Z,997.84
2018-01-21T00:07:37.549Z,997.84
2018-01-21T00:08:37.548Z,997.84
2018-01-21T00:09:37.546Z,997.82
2018-01-21T00:10:37.550Z,997.89
2018-01-21T00:11:37.551Z,997.90
2018-01-21T00:12:37.554Z,997.94
2018-01-21T00:13:37.587Z,997.95
2018-01-21T00:14:37.560Z,997.99
2018-01-21T00:15:37.558Z,998.03
2018-01-21T00:16:37.563Z,998.02
2018-01-21T00:17:37.568Z,998.05
2018-01-21T00:18:37.564Z,998.04
2018-01-21T00:19:37.566Z,998.09
2018-01-21T00:20:37.571Z,998.10
2018-01-21T00:21:37.580Z,998.12
2018-01-21T00:22:37.566Z,998.19
2018-01-21T00:23:37.578Z,998.20
2018-01-21T00:24:37.570Z,998.23
2018-01-21T00:25:37.589Z,998.21
2018-01-21T00:26:37.576Z,998.25
2018-01-21T00:27:37.579Z,998.23
2018-01-21T00:28:37.578Z,998.27
2018-01-21T00:29:37.583Z,998.28
2018-01-21T00:30:37.580Z,998.31
2018-01-21T00:31:37.589Z,998.29
2018-01-21T00:32:37.584Z,998.33
2018-01-21T00:33:37.594Z,998.34
2018-01-21T00:34:37.590Z,998.36
2018-01-21T00:35:37.590Z,998.41
2018-01-21T00:36:37.598Z,998.41
2018-01-21T00:37:37.600Z,998.40
2018-01-21T00:38:37.596Z,998.42
2018-01-21T00:39:37.600Z,998.40
2018-01-21T00:40:37.604Z,998.42
2018-01-21T00:41:37.604Z,998.42
2018-01-21T00:42:37.612Z,998.46
2018-01-21T00:43:37.603Z,998.50
2018-01-21T00:44:37.602Z,998.51
2018-01-21T00:45:37.621Z,998.50
2018-01-21T00:46:37.613Z,998.53
2018-01-21T00:47:37.614Z,998.54
2018-01-21T00:48:37.615Z,998.58
2018-01-21T00:49:37.616Z,998.57
2018-01-21T00:50:37.620Z,998.59
2018-01-21T00:51:37.625Z,998.61
2018-01-21T00:52:37.624Z,998.65
2018-01-21T00:53:37.627Z,998.65
2018-01-21T00:54:37.626Z,998.68
2018-01-21T00:55:37.628Z,998.70
2018-01-21T00:56:37.630Z,998.73
2018-01-21T00:57:37.627Z,998.73
2018-01-21T00:58:37.625Z,998.76
2018-01-21T00:59:37.634Z,998.73
2018-01-21T01:00:37.635Z,998.77
2018-01-21T01:01:37.634Z,998.79
2018-01-21T01:02:37.637Z,998.79
2018-01-21T01:03:38.597Z,998.76
2018-01-21T01:04:37.640Z,998.76
2018-01-21T01:05:37.641Z,998.82
2018-01-21T01:06:37.652Z,998.83
2018-01-21T01:07:37.645Z,998.88
2018-01-21T01:08:37.650Z,998.89
2018-01-21T01:09:37.649Z,998.95
2018-01-21T01:10:37.670Z,999.01
2018-01-21T01:11:37.689Z,998.99
2018-01-21T01:12:37.654Z,999.06
2018-01-21T01:13:37.650Z,999.13
2018-01-21T01:15:30.593Z,999.15
2018-01-21T01:16:30.587Z,999.16
2018-01-21T01:18:23.565Z,999.24
2018-01-21T01:19:23.530Z,999.26
2018-01-21T01:21:16.500Z,999.31
2018-01-21T01:22:16.500Z,999.30
2018-01-21T01:24:09.468Z,999.32
2018-01-21T01:25:09.472Z,999.29
2018-01-21T01:27:02.437Z,999.36
2018-01-21T01:28:02.404Z,999.40
2018-01-21T01:29:55.368Z,999.38
2018-01-21T01:30:55.367Z,999.40
2018-01-21T01:32:48.339Z,999.38
2018-01-21T01:33:48.318Z,999.36
2018-01-21T01:35:41.307Z,999.27
2018-01-21T01:36:41.297Z,999.28
2018-01-21T01:38:34.260Z,999.39
2018-01-21T01:39:34.232Z,999.44
2018-01-21T01:41:27.190Z,999.50
2018-01-21T01:42:27.193Z,999.48
2018-01-21T01:43:27.196Z,999.53
2018-01-21T01:44:27.199Z,999.58
2018-01-21T01:45:27.201Z,999.63
2018-01-21T01:46:27.203Z,999.63
2018-01-21T01:47:27.200Z,999.66
2018-01-21T01:48:27.202Z,999.66
2018-01-21T01:49:27.206Z,999.71
2018-01-21T01:50:27.206Z,999.72
2018-01-21T01:51:27.201Z,999.73
2018-01-21T01:52:27.209Z,999.70
2018-01-21T01:53:27.211Z,999.74
2018-01-21T01:54:27.206Z,999.80
2018-01-21T01:55:27.212Z,999.82
2018-01-21T01:56:27.215Z,999.86
2018-01-21T01:57:27.214Z,999.86
2018-01-21T01:58:27.213Z,999.87
2018-01-21T01:59:27.215Z,999.87
2018-01-21T02:00:28.182Z,999.89
2018-01-21T02:01:27.224Z,999.88
2018-01-21T02:02:27.227Z,999.97
2018-01-21T02:03:27.220Z,999.99
2018-01-21T02:04:27.234Z,1000.02
2018-01-21T02:05:27.231Z,1000.02
2018-01-21T02:06:27.233Z,1000.04
2018-01-21T02:07:27.229Z,1000.10
2018-01-21T02:08:27.231Z,1000.14
2018-01-21T02:09:27.232Z,1000.17
2018-01-21T02:10:27.238Z,1000.15
2018-01-21T02:11:27.238Z,1000.18
2018-01-21T02:12:27.235Z,1000.16
2018-01-21T02:13:27.242Z,1000.18
2018-01-21T02:14:27.244Z,1000.20
2018-01-21T02:15:27.249Z,1000.20
2018-01-21T02:16:27.243Z,1000.20
2018-01-21T02:17:27.248Z,1000.22
2018-01-21T02:18:27.244Z,1000.24
2018-01-21T02:19:27.257Z,1000.31
2018-01-21T02:20:27.249Z,1000.29
2018-01-21T02:21:27.257Z,1000.31
2018-01-21T02:22:27.254Z,1000.33
2018-01-21T02:23:27.262Z,1000.36
2018-01-21T02:24:27.256Z,1000.37
2018-01-21T02:25:27.280Z,1000.42
2018-01-21T02:26:27.260Z,1000.43
2018-01-21T02:27:27.265Z,1000.43
2018-01-21T02:28:27.269Z,1000.45
2018-01-21T02:29:27.269Z,1000.47
2018-01-21T02:30:27.265Z,1000.50
2018-01-21T02:31:27.272Z,1000.57
2018-01-21T02:32:27.274Z,1000.55
2018-01-21T02:33:27.270Z,1000.56
2018-01-21T02:34:27.274Z,1000.58
2018-01-21T02:35:27.277Z,1000.57
2018-01-21T02:36:27.272Z,1000.55
2018-01-21T02:37:27.274Z,1000.58
2018-01-21T02:38:27.290Z,1000.55
2018-01-21T02:39:27.290Z,1000.59
2018-01-21T02:40:27.286Z,1000.65
2018-01-21T02:41:27.291Z,1000.66
2018-01-21T02:42:27.293Z,1000.69
2018-01-21T02:43:27.290Z,1000.68
2018-01-21T02:44:27.293Z,1000.71
2018-01-21T02:45:27.290Z,1000.73
2018-01-21T02:46:27.299Z,1000.71
2018-01-21T02:47:27.296Z,1000.76
2018-01-21T02:48:27.305Z,1000.77
2018-01-21T02:49:27.301Z,1000.79
2018-01-21T02:50:27.330Z,1000.78
2018-01-21T02:51:27.306Z,1000.82
2018-01-21T02:52:27.307Z,1000.81
2018-01-21T02:53:27.305Z,1000.86
2018-01-21T02:54:27.312Z,1000.87
2018-01-21T02:55:27.320Z,1000.90
2018-01-21T02:56:27.319Z,1000.87
2018-01-21T02:57:27.313Z,1000.89
2018-01-21T02:58:27.312Z,1000.91
2018-01-21T02:59:27.318Z,1000.93
2018-01-21T03:00:27.315Z,1000.98
2018-01-21T03:01:27.323Z,1000.96
2018-01-21T03:02:27.322Z,1000.98
2018-01-21T03:03:27.327Z,1000.98
2018-01-21T03:04:27.322Z,1001.01
2018-01-21T03:05:27.323Z,1001.04
2018-01-21T03:06:27.328Z,1001.04
2018-01-21T03:07:27.328Z,1001.04
2018-01-21T03:08:27.333Z,1001.10
2018-01-21T03:09:27.328Z,1001.11
2018-01-21T03:10:27.335Z,1001.08
2018-01-21T03:11:27.332Z,1001.11
2018-01-21T03:12:27.341Z,1001.12
2018-01-21T03:13:27.339Z,1001.10
2018-01-21T03:14:27.339Z,1001.15
2018-01-21T03:15:27.348Z,1001.16
2018-01-21T03:16:27.343Z,1001.17
2018-01-21T03:17:27.342Z,1001.22
2018-01-21T03:18:27.342Z,1001.23
2018-01-21T03:19:27.346Z,1001.23
2018-01-21T03:20:27.343Z,1001.24
2018-01-21T03:21:27.350Z,1001.27
2018-01-21T03:22:27.347Z,1001.28
2018-01-21T03:23:27.349Z,1001.30
2018-01-21T03:24:28.198Z,1001.35
2018-01-21T03:25:27.353Z,1001.35
2018-01-21T03:26:27.347Z,1001.34
2018-01-21T03:27:27.358Z,1001.31
2018-01-21T03:28:27.365Z,1001.36
2018-01-21T03:29:27.355Z,1001.41
2018-01-21T03:30:27.357Z,1001.39
2018-01-21T03:31:27.358Z,1001.45
2018-01-21T03:32:27.354Z,1001.47
2018-01-21T03:33:27.358Z,1001.50
2018-01-21T03:34:27.362Z,1001.52
2018-01-21T03:35:27.366Z,1001.54
2018-01-21T03:36:27.360Z,1001.57
2018-01-21T03:37:27.361Z,1001.61
2018-01-21T03:38:27.363Z,1001.61
2018-01-21T03:39:27.365Z,1001.64
2018-01-21T03:40:27.362Z,1001.63
2018-01-21T03:41:27.366Z,1001.64
2018-01-21T03:42:27.366Z,1001.66
2018-01-21T03:43:27.375Z,1001.66
2018-01-21T03:44:28.198Z,1001.71
2018-01-21T03:45:27.369Z,1001.73
2018-01-21T03:46:27.372Z,1001.74
2018-01-21T03:47:27.405Z,1001.81
2018-01-21T03:48:27.370Z,1001.83
2018-01-21T03:49:27.373Z,1001.87
2018-01-21T03:50:27.376Z,1001.91
2018-01-21T03:51:27.375Z,1001.89
2018-01-21T03:52:27.371Z,1001.91
2018-01-21T03:53:27.372Z,1001.92
2018-01-21T03:54:27.374Z,1002.00
2018-01-21T03:55:27.378Z,1001.97
2018-01-21T03:56:27.377Z,1001.99
2018-01-21T03:57:27.376Z,1001.98
2018-01-21T03:58:27.379Z,1001.97
2018-01-21T03:59:27.379Z,1001.97
2018-01-21T04:00:27.375Z,1001.97
2018-01-21T04:01:27.377Z,1002.00
2018-01-21T04:02:27.385Z,1002.03
2018-01-21T04:03:27.379Z,1002.02
2018-01-21T04:04:27.379Z,1002.05
2018-01-21T04:05:27.381Z,1002.06
2018-01-21T04:06:27.391Z,1002.08
2018-01-21T04:07:27.386Z,1002.05
2018-01-21T04:08:27.386Z,1002.04
2018-01-21T04:09:27.381Z,1002.03
2018-01-21T04:10:27.382Z,1002.07
2018-01-21T04:11:27.383Z,1002.08
2018-01-21T04:12:27.389Z,1002.12
2018-01-21T04:13:27.386Z,1002.11
2018-01-21T04:14:27.385Z,1002.11
2018-01-21T04:15:27.392Z,1002.13
2018-01-21T04:16:27.393Z,1002.15
2018-01-21T04:17:27.383Z,1002.14
2018-01-21T04:18:27.395Z,1002.21
2018-01-21T04:19:27.391Z,1002.19
2018-01-21T04:20:27.395Z,1002.22
2018-01-21T04:21:27.390Z,1002.23
2018-01-21T04:22:27.395Z,1002.28
2018-01-21T04:23:27.393Z,1002.29
2018-01-21T04:24:27.390Z,1002.31
2018-01-21T04:25:27.393Z,1002.29
2018-01-21T04:26:27.399Z,1002.31
2018-01-21T04:27:27.391Z,1002.34
2018-01-21T04:28:27.392Z,1002.31
2018-01-21T04:29:27.394Z,1002.34
2018-01-21T04:30:27.395Z,1002.35
2018-01-21T04:31:27.396Z,1002.38
2018-01-21T04:32:27.398Z,1002.39
2018-01-21T04:33:27.392Z,1002.40
2018-01-21T04:34:27.397Z,1002.45
2018-01-21T04:35:27.396Z,1002.48
2018-01-21T04:36:27.398Z,1002.49
2018-01-21T04:37:27.396Z,1002.50
2018-01-21T04:38:27.391Z,1002.52
2018-01-21T04:39:27.396Z,1002.55
2018-01-21T04:40:27.401Z,1002.56
2018-01-21T04:41:27.410Z,1002.64
2018-01-21T04:42:27.398Z,1002.65
2018-01-21T04:43:27.397Z,1002.67
2018-01-21T04:44:27.401Z,1002.62
2018-01-21T04:45:27.400Z,1002.64
2018-01-21T04:46:27.394Z,1002.65
2018-01-21T04:47:27.400Z,1002.65
2018-01-21T04:48:27.401Z,1002.71
2018-01-21T04:49:27.401Z,1002.75
2018-01-21T04:50:27.405Z,1002.73
2018-01-21T04:51:27.401Z,1002.75
2018-01-21T04:52:27.402Z,1002.75
2018-01-21T04:53:27.406Z,1002.78
2018-01-21T04:54:27.398Z,1002.81
2018-01-21T04:55:27.405Z,1002.83
2018-01-21T04:56:27.400Z,1002.87
2018-01-21T04:57:27.401Z,1002.88
2018-01-21T04:58:27.404Z,1002.90
2018-01-21T04:59:27.403Z,1002.92
2018-01-21T05:00:27.403Z,1002.94
2018-01-21T05:01:27.404Z,1002.97
2018-01-21T05:02:27.405Z,1003.00
2018-01-21T05:03:27.404Z,1003.01
2018-01-21T05:04:27.398Z,1002.99
2018-01-21T05:05:27.401Z,1002.98
2018-01-21T05:06:27.403Z,1003.00
2018-01-21T05:07:27.404Z,1003.03
2018-01-21T05:08:27.406Z,1003.08
2018-01-21T05:09:27.402Z,1003.03
2018-01-21T05:10:27.405Z,1003.06
2018-01-21T05:11:27.403Z,1003.08
2018-01-21T05:12:27.408Z,1003.10
2018-01-21T05:13:27.408Z,1003.15
2018-01-21T05:14:27.402Z,1003.09
2018-01-21T05:15:27.399Z,1003.14
2018-01-21T05:16:27.413Z,1003.18
2018-01-21T05:17:27.400Z,1003.17
2018-01-21T05:18:27.403Z,1003.19
2018-01-21T05:19:27.400Z,1003.22
2018-01-21T05:20:27.405Z,1003.21
2018-01-21T05:21:27.404Z,1003.24
2018-01-21T05:22:27.406Z,1003.23
2018-01-21T05:23:27.407Z,1003.23
2018-01-21T05:24:27.413Z,1003.26
2018-01-21T05:25:27.402Z,1003.26
2018-01-21T05:26:27.409Z,1003.27
2018-01-21T05:27:27.412Z,1003.28
2018-01-21T05:28:27.409Z,1003.24
2018-01-21T05:29:27.410Z,1003.29
2018-01-21T05:30:27.411Z,1003.28
2018-01-21T05:31:27.415Z,1003.32
2018-01-21T05:32:27.408Z,1003.31
2018-01-21T05:33:27.410Z,1003.30
2018-01-21T05:34:27.405Z,1003.30
2018-01-21T05:35:28.230Z,1003.31
2018-01-21T05:36:27.414Z,1003.30
2018-01-21T05:37:27.413Z,1003.32
2018-01-21T05:38:27.412Z,1003.36
2018-01-21T05:39:27.412Z,1003.39
2018-01-21T05:40:27.406Z,1003.38
2018-01-21T05:41:27.409Z,1003.41
2018-01-21T05:42:27.411Z,1003.40
2018-01-21T05:43:27.410Z,1003.42
2018-01-21T05:44:27.407Z,1003.39
2018-01-21T05:45:27.410Z,1003.45
2018-01-21T05:46:27.417Z,1003.49
2018-01-21T05:47:27.412Z,1003.52
2018-01-21T05:48:27.412Z,1003.53
2018-01-21T05:49:27.416Z,1003.55
2018-01-21T05:50:27.408Z,1003.55
2018-01-21T05:51:27.412Z,1003.63
2018-01-21T05:52:27.411Z,1003.61
2018-01-21T05:53:27.412Z,1003.63
2018-01-21T05:54:27.414Z,1003.61
2018-01-21T05:55:27.417Z,1003.61
2018-01-21T05:56:27.419Z,1003.63
2018-01-21T05:57:27.413Z,1003.65
2018-01-21T05:58:27.421Z,1003.69
2018-01-21T05:59:27.416Z,1003.68
2018-01-21T06:00:27.414Z,1003.69
2018-01-21T06:01:27.427Z,1003.69
2018-01-21T06:02:27.415Z,1003.69
2018-01-21T06:03:27.415Z,1003.72
2018-01-21T06:04:27.416Z,1003.71
2018-01-21T06:05:27.417Z,1003.68
2018-01-21T06:06:27.415Z,1003.71
2018-01-21T06:07:27.410Z,1003.73
2018-01-21T06:08:28.967Z,1003.75
2018-01-21T06:09:27.415Z,1003.74
2018-01-21T06:10:27.414Z,1003.74
2018-01-21T06:11:27.419Z,1003.81
2018-01-21T06:12:27.414Z,1003.81
2018-01-21T06:13:27.419Z,1003.80
2018-01-21T06:14:27.410Z,1003.82
2018-01-21T06:15:27.419Z,1003.87
2018-01-21T06:16:27.413Z,1003.90
2018-01-21T06:17:27.413Z,1003.93
2018-01-21T06:18:27.411Z,1003.91
2018-01-21T06:19:27.410Z,1004.00
2018-01-21T06:20:27.424Z,1003.97
2018-01-21T06:21:27.412Z,1003.99
2018-01-21T06:22:27.413Z,1004.02
2018-01-21T06:23:27.417Z,1004.01
2018-01-21T06:24:27.415Z,1004.08
2018-01-21T06:25:27.409Z,1004.10
2018-01-21T06:26:27.414Z,1004.10
2018-01-21T06:27:27.413Z,1004.12
2018-01-21T06:28:27.417Z,1004.16
2018-01-21T06:29:27.408Z,1004.16
2018-01-21T06:30:27.418Z,1004.23
2018-01-21T06:31:27.409Z,1004.22
2018-01-21T06:32:27.415Z,1004.22
2018-01-21T06:33:27.415Z,1004.23
2018-01-21T06:34:27.450Z,1004.28
2018-01-21T06:35:27.409Z,1004.29
2018-01-21T06:36:27.413Z,1004.35
2018-01-21T06:37:27.426Z,1004.36
2018-01-21T06:38:27.413Z,1004.37
2018-01-21T06:39:27.413Z,1004.39
2018-01-21T06:40:27.417Z,1004.39
2018-01-21T06:41:27.417Z,1004.46
2018-01-21T06:42:27.419Z,1004.47
2018-01-21T06:43:27.412Z,1004.49
2018-01-21T06:44:27.412Z,1004.50
2018-01-21T06:45:27.414Z,1004.54
2018-01-21T06:46:27.414Z,1004.56
2018-01-21T06:47:27.416Z,1004.58
2018-01-21T06:48:27.412Z,1004.60
2018-01-21T06:49:27.416Z,1004.65
2018-01-21T06:50:27.416Z,1004.65
2018-01-21T06:51:27.420Z,1004.65
2018-01-21T06:52:27.412Z,1004.71
2018-01-21T06:53:27.412Z,1004.74
2018-01-21T06:54:27.416Z,1004.81
2018-01-21T06:55:27.418Z,1004.81
2018-01-21T06:56:27.416Z,1004.78
2018-01-21T06:57:27.422Z,1004.76
2018-01-21T06:58:27.414Z,1004.76
2018-01-21T06:59:27.417Z,1004.77
2018-01-21T07:00:27.421Z,1004.82
2018-01-21T07:01:27.428Z,1004.88
2018-01-21T07:02:27.418Z,1004.84
2018-01-21T07:03:27.421Z,1004.85
2018-01-21T07:04:27.417Z,1004.91
2018-01-21T07:05:27.413Z,1004.90
2018-01-21T07:06:27.426Z,1004.92
2018-01-21T07:07:27.418Z,1004.96
2018-01-21T07:08:27.420Z,1005.02
2018-01-21T07:09:27.418Z,1005.09
2018-01-21T07:10:27.422Z,1005.11
2018-01-21T07:11:27.419Z,1005.12
2018-01-21T07:12:28.296Z,1005.09
2018-01-21T07:13:27.448Z,1005.08
2018-01-21T07:15:20.409Z,1005.10
2018-01-21T07:16:20.351Z,1005.11
2018-01-21T07:18:13.299Z,1005.17
2018-01-21T07:19:13.279Z,1005.23
2018-01-21T07:21:06.241Z,1005.26
2018-01-21T07:22:06.236Z,1005.20
2018-01-21T07:23:59.218Z,1005.31
2018-01-21T07:24:59.190Z,1005.29
2018-01-21T07:26:52.663Z,1005.37
2018-01-21T07:27:52.146Z,1005.32
2018-01-21T07:29:45.112Z,1005.47
2018-01-21T07:30:45.107Z,1005.46
2018-01-21T07:32:38.087Z,1005.54
2018-01-21T07:33:38.064Z,1005.55
2018-01-21T07:35:31.028Z,1005.59
2018-01-21T07:36:31.018Z,1005.58
2018-01-21T07:38:24.006Z,1005.65
2018-01-21T07:39:23.975Z,1005.68
2018-01-21T07:41:16.945Z,1005.73
2018-01-21T07:42:16.932Z,1005.73
2018-01-21T07:44:09.922Z,1005.82
2018-01-21T07:45:09.894Z,1005.85
2018-01-21T07:46:09.894Z,1005.91
2018-01-21T07:47:09.894Z,1005.92
2018-01-21T07:48:09.893Z,1005.94
2018-01-21T07:49:09.896Z,1005.95
2018-01-21T07:50:09.899Z,1005.99
2018-01-21T07:51:09.893Z,1006.01
2018-01-21T07:52:09.896Z,1006.03
2018-01-21T07:53:09.898Z,1006.04
2018-01-21T07:54:09.898Z,1006.09
2018-01-21T07:55:09.919Z,1006.10
2018-01-21T07:56:09.895Z,1006.18
2018-01-21T07:57:09.900Z,1006.15
2018-01-21T07:58:09.897Z,1006.15
2018-01-21T07:59:09.900Z,1006.19
2018-01-21T08:00:09.898Z,1006.20
2018-01-21T08:01:09.899Z,1006.24
2018-01-21T08:02:09.895Z,1006.25
2018-01-21T08:03:09.902Z,1006.27
2018-01-21T08:04:09.906Z,1006.30
2018-01-21T08:05:09.903Z,1006.35
2018-01-21T08:06:09.903Z,1006.33
2018-01-21T08:07:09.907Z,1006.37
2018-01-21T08:08:09.904Z,1006.39
2018-01-21T08:09:09.909Z,1006.45
2018-01-21T08:10:09.907Z,1006.46
2018-01-21T08:11:09.913Z,1006.48
2018-01-21T08:12:09.906Z,1006.48
2018-01-21T08:13:09.907Z,1006.48
2018-01-21T08:14:09.912Z,1006.51
2018-01-21T08:15:09.909Z,1006.52
2018-01-21T08:16:09.912Z,1006.57
2018-01-21T08:17:09.908Z,1006.58
2018-01-21T08:18:09.914Z,1006.54
2018-01-21T08:19:09.915Z,1006.55
2018-01-21T08:20:09.916Z,1006.54
2018-01-21T08:21:09.914Z,1006.59
2018-01-21T08:22:09.918Z,1006.61
2018-01-21T08:23:09.916Z,1006.66
2018-01-21T08:24:09.923Z,1006.67
2018-01-21T08:25:09.921Z,1006.69
2018-01-21T08:26:09.922Z,1006.67
2018-01-21T08:27:09.931Z,1006.78
2018-01-21T08:28:09.948Z,1006.77
2018-01-21T08:29:09.925Z,1006.76
2018-01-21T08:30:09.922Z,1006.78
2018-01-21T08:31:09.928Z,1006.82
2018-01-21T08:32:09.925Z,1006.86
2018-01-21T08:33:09.933Z,1006.84
2018-01-21T08:34:09.933Z,1006.83
2018-01-21T08:35:09.929Z,1006.83
2018-01-21T08:36:09.934Z,1006.84
2018-01-21T08:37:09.935Z,1006.86
2018-01-21T08:38:09.940Z,1006.87
2018-01-21T08:39:09.938Z,1006.90
2018-01-21T08:40:09.939Z,1006.88
2018-01-21T08:41:09.936Z,1006.86
2018-01-21T08:42:09.943Z,1006.89
2018-01-21T08:43:09.943Z,1006.92
2018-01-21T08:44:09.944Z,1006.94
2018-01-21T08:45:09.945Z,1006.97
2018-01-21T08:46:09.947Z,1007.01
2018-01-21T08:47:09.946Z,1006.96
2018-01-21T08:48:09.951Z,1006.95
2018-01-21T08:49:10.886Z,1006.98
2018-01-21T08:50:09.949Z,1006.97
2018-01-21T08:51:09.967Z,1006.99
2018-01-21T08:52:09.952Z,1007.01
2018-01-21T08:53:09.954Z,1007.03
2018-01-21T08:54:09.959Z,1007.03
2018-01-21T08:55:09.957Z,1007.04
2018-01-21T08:56:09.959Z,1007.06
2018-01-21T08:57:09.965Z,1007.11
2018-01-21T08:58:09.965Z,1007.09
2018-01-21T08:59:09.965Z,1007.11
2018-01-21T09:00:09.964Z,1007.16
2018-01-21T09:01:09.971Z,1007.19
2018-01-21T09:02:09.974Z,1007.21
2018-01-21T09:03:09.972Z,1007.20
2018-01-21T09:04:09.972Z,1007.22
2018-01-21T09:05:09.978Z,1007.23
2018-01-21T09:06:09.977Z,1007.28
2018-01-21T09:07:09.978Z,1007.31
2018-01-21T09:08:10.025Z,1007.33
2018-01-21T09:09:09.985Z,1007.34
2018-01-21T09:10:09.986Z,1007.33
2018-01-21T09:11:09.986Z,1007.28
2018-01-21T09:12:09.989Z,1007.30
2018-01-21T09:13:09.991Z,1007.28
2018-01-21T09:14:09.991Z,1007.32
2018-01-21T09:15:09.996Z,1007.40
2018-01-21T09:16:09.996Z,1007.43
2018-01-21T09:17:09.994Z,1007.42
2018-01-21T09:18:09.995Z,1007.45
2018-01-21T09:19:10.002Z,1007.44
2018-01-21T09:20:10.005Z,1007.46
2018-01-21T09:21:10.010Z,1007.45
2018-01-21T09:22:10.011Z,1007.47
2018-01-21T09:23:10.005Z,1007.52
2018-01-21T09:24:10.011Z,1007.55
2018-01-21T09:25:10.010Z,1007.55
2018-01-21T09:26:10.025Z,1007.54
2018-01-21T09:27:10.023Z,1007.59
2018-01-21T09:28:10.014Z,1007.64
2018-01-21T09:29:10.025Z,1007.68
2018-01-21T09:30:10.024Z,1007.68
2018-01-21T09:31:10.021Z,1007.74
2018-01-21T09:32:10.023Z,1007.73
2018-01-21T09:33:10.025Z,1007.81
2018-01-21T09:34:10.031Z,1007.76
2018-01-21T09:35:10.028Z,1007.78
2018-01-21T09:36:10.031Z,1007.78
2018-01-21T09:37:10.031Z,1007.79
2018-01-21T09:38:10.042Z,1007.78
2018-01-21T09:39:10.034Z,1007.74
2018-01-21T09:40:10.041Z,1007.77
2018-01-21T09:41:10.043Z,1007.87
2018-01-21T09:42:10.045Z,1007.93
2018-01-21T09:43:10.051Z,1007.95
2018-01-21T09:44:10.048Z,1007.90
2018-01-21T09:45:10.046Z,1007.91
2018-01-21T09:46:10.050Z,1007.82
2018-01-21T09:47:10.059Z,1007.82
2018-01-21T09:48:10.057Z,1007.76
2018-01-21T09:49:10.055Z,1007.81
2018-01-21T09:50:10.057Z,1007.83
2018-01-21T09:51:10.063Z,1007.85
2018-01-21T09:52:10.063Z,1007.87
2018-01-21T09:53:10.063Z,1007.86
2018-01-21T09:54:10.066Z,1007.90
2018-01-21T09:55:10.072Z,1007.96
2018-01-21T09:56:10.067Z,1008.00
2018-01-21T09:57:10.136Z,1008.02
2018-01-21T09:58:10.072Z,1008.05
2018-01-21T09:59:10.074Z,1008.10
2018-01-21T10:00:10.075Z,1008.20
2018-01-21T10:01:10.083Z,1008.13
2018-01-21T10:02:10.082Z,1008.15
2018-01-21T10:03:10.090Z,1008.22
2018-01-21T10:04:10.090Z,1008.35
2018-01-21T10:05:10.091Z,1008.42
2018-01-21T10:06:10.089Z,1008.33
2018-01-21T10:07:10.096Z,1008.38
2018-01-21T10:08:10.097Z,1008.61
2018-01-21T10:09:10.096Z,1008.41
2018-01-21T10:10:10.100Z,1008.57
2018-01-21T10:11:10.106Z,1008.41
2018-01-21T10:12:10.105Z,1008.33
2018-01-21T10:13:10.112Z,1008.86
2018-01-21T10:14:10.112Z,1008.86
2018-01-21T10:15:10.115Z,1008.60
2018-01-21T10:16:10.122Z,1008.53
2018-01-21T10:17:10.122Z,1008.54
2018-01-21T10:18:10.124Z,1008.51
2018-01-21T10:19:10.134Z,1008.55
2018-01-21T10:20:10.130Z,1008.59
2018-01-21T10:21:10.136Z,1008.54
2018-01-21T10:22:10.139Z,1008.52
2018-01-21T10:23:10.211Z,1008.44
2018-01-21T10:24:10.143Z,1008.43
2018-01-21T10:25:10.177Z,1008.41
2018-01-21T10:26:10.178Z,1008.40
2018-01-21T10:27:10.159Z,1008.47
2018-01-21T10:28:10.183Z,1008.48
2018-01-21T10:29:10.165Z,1008.48
2018-01-21T10:30:10.177Z,1008.45
2018-01-21T10:31:10.176Z,1008.51
2018-01-21T10:32:10.176Z,1008.49
2018-01-21T10:33:10.185Z,1008.50
2018-01-21T10:34:10.187Z,1008.52
2018-01-21T10:35:10.215Z,1008.53
2018-01-21T10:36:10.191Z,1008.52
2018-01-21T10:37:10.197Z,1008.55
2018-01-21T10:38:10.199Z,1008.59
2018-01-21T10:39:10.203Z,1008.63
2018-01-21T10:40:10.202Z,1008.59
2018-01-21T10:41:10.211Z,1008.64
2018-01-21T10:42:10.211Z,1008.64
2018-01-21T10:43:10.217Z,1008.65
2018-01-21T10:44:10.218Z,1008.67
2018-01-21T10:45:10.224Z,1008.71
2018-01-21T10:46:10.223Z,1008.73
2018-01-21T10:47:10.239Z,1008.72
2018-01-21T10:48:10.254Z,1008.72
2018-01-21T10:49:10.237Z,1008.72
2018-01-21T10:50:10.245Z,1008.72
2018-01-21T10:51:10.239Z,1008.73
2018-01-21T10:52:10.268Z,1008.76
2018-01-21T10:53:10.244Z,1008.78
2018-01-21T10:54:10.253Z,1008.80
2018-01-21T10:55:10.250Z,1008.79
2018-01-21T10:56:10.258Z,1008.84
2018-01-21T10:57:10.260Z,1008.82
2018-01-21T10:58:10.262Z,1008.85
2018-01-21T10:59:10.758Z,1008.83
2018-01-21T11:00:10.271Z,1008.82
2018-01-21T11:01:10.317Z,1008.87
2018-01-21T11:02:10.278Z,1008.88
2018-01-21T11:03:10.986Z,1008.88
2018-01-21T11:04:10.284Z,1008.87
2018-01-21T11:05:10.282Z,1008.92
2018-01-21T11:06:10.288Z,1008.91
2018-01-21T11:07:10.298Z,1008.85
2018-01-21T11:08:10.304Z,1008.84
2018-01-21T11:09:10.294Z,1008.87
2018-01-21T11:10:10.304Z,1008.84
2018-01-21T11:11:10.306Z,1008.84
2018-01-21T11:12:10.310Z,1008.85
2018-01-21T11:13:10.307Z,1008.84
2018-01-21T11:14:10.310Z,1008.84
2018-01-21T11:15:10.321Z,1008.84
2018-01-21T11:16:10.321Z,1008.87
2018-01-21T11:17:10.322Z,1008.89
2018-01-21T11:18:10.324Z,1008.91
2018-01-21T11:19:10.334Z,1008.92
2018-01-21T11:20:10.332Z,1008.91
2018-01-21T11:21:10.332Z,1008.97
2018-01-21T11:22:10.341Z,1008.92
2018-01-21T11:23:10.340Z,1008.94
2018-01-21T11:24:10.342Z,1008.87
2018-01-21T11:25:10.348Z,1008.92
2018-01-21T11:26:10.396Z,1008.87
2018-01-21T11:27:10.352Z,1008.87
2018-01-21T11:28:10.353Z,1008.91
2018-01-21T11:29:10.365Z,1008.91
2018-01-21T11:30:10.362Z,1008.91
2018-01-21T11:31:10.366Z,1008.94
2018-01-21T11:32:10.369Z,1008.94
2018-01-21T11:33:10.985Z,1008.95
2018-01-21T11:34:10.396Z,1008.96
2018-01-21T11:35:10.373Z,1008.98
2018-01-21T11:36:10.379Z,1008.96
2018-01-21T11:37:10.386Z,1008.96
2018-01-21T11:38:10.411Z,1009.03
2018-01-21T11:39:10.389Z,1008.98
2018-01-21T11:40:10.404Z,1008.97
2018-01-21T11:41:10.400Z,1008.99
2018-01-21T11:42:10.403Z,1008.93
2018-01-21T11:43:10.405Z,1008.96
2018-01-21T11:44:10.428Z,1008.94
2018-01-21T11:45:10.405Z,1008.90
2018-01-21T11:46:10.410Z,1008.90
2018-01-21T11:47:10.824Z,1008.93
2018-01-21T11:48:10.417Z,1008.88
2018-01-21T11:49:10.432Z,1008.90
2018-01-21T11:50:10.444Z,1008.83
2018-01-21T11:51:10.455Z,1008.91
2018-01-21T11:52:12.762Z,1008.85
2018-01-21T11:53:10.445Z,1008.84
2018-01-21T11:54:10.438Z,1008.84
2018-01-21T11:55:10.440Z,1008.86
2018-01-21T11:56:10.443Z,1008.88
2018-01-21T11:57:10.445Z,1008.90
2018-01-21T11:58:10.449Z,1008.89
2018-01-21T11:59:10.449Z,1008.88
2018-01-21T12:00:10.454Z,1008.96
2018-01-21T12:01:10.454Z,1008.91
2018-01-21T12:02:10.461Z,1008.94
2018-01-21T12:03:10.459Z,1008.95
2018-01-21T12:04:10.466Z,1008.94
2018-01-21T12:05:10.463Z,1008.97
2018-01-21T12:06:10.469Z,1008.97
2018-01-21T12:07:10.472Z,1008.96
2018-01-21T12:08:10.474Z,1008.98
2018-01-21T12:09:10.471Z,1009.01
2018-01-21T12:10:10.496Z,1009.00
2018-01-21T12:11:10.482Z,1009.00
2018-01-21T12:12:10.485Z,1009.01
2018-01-21T12:13:10.493Z,1008.95
2018-01-21T12:14:10.494Z,1008.99
2018-01-21T12:15:10.494Z,1009.01
2018-01-21T12:16:10.502Z,1009.06
2018-01-21T12:17:10.498Z,1009.05
2018-01-21T12:18:10.500Z,1009.04
2018-01-21T12:19:10.510Z,1009.05
2018-01-21T12:20:10.508Z,1009.05
2018-01-21T12:21:10.514Z,1009.05
2018-01-21T12:22:10.515Z,1009.05
2018-01-21T12:23:10.521Z,1009.03
2018-01-21T12:24:10.523Z,1009.03
2018-01-21T12:25:10.523Z,1009.02
2018-01-21T12:26:10.527Z,1009.01
2018-01-21T12:27:10.533Z,1009.07
2018-01-21T12:28:10.537Z,1009.03